Time;durP1;ratioP1;P1;durP2;ratioP2;P2;SDS_P1;SDS_P2;PMS_P1;PMS_P2;Temp;Humidity;BMP_temperature;BMP_pressure;BME280_temperature;BME280_humidity;BME280_pressure;Samples;Min_cycle;Max_cycle;Signal;HPM_P1;HPM_P2
2021/12/14 00:01:31;;;;;;;20.05;13.22;;;;;;;1.71;100.00;100385.04;1752284;81;21111;-88
2021/12/14 00:04:10;;;;;;;21.30;13.87;;;;;;;1.74;100.00;100386.00;1763608;81;21010;-75
2021/12/14 00:06:36;;;;;;;20.30;13.60;;;;;;;1.80;100.00;100387.13;1737833;81;21010;-74
2021/12/14 00:09:05;;;;;;;21.45;14.70;;;;;;;1.83;100.00;100392.91;1765078;80;21579;-77
2021/12/14 00:15:01;;;;;;;22.65;15.58;;;;;;;1.86;100.00;100395.72;1763491;81;20982;-71
2021/12/14 00:16:58;;;;;;;16.95;13.03;;;;;;;1.86;100.00;100400.53;1714454;82;20915;-70
2021/12/14 00:19:26;;;;;;;19.85;13.40;;;;;;;1.94;100.00;100393.00;1733402;82;21141;-72
2021/12/14 00:21:54;;;;;;;18.92;12.40;;;;;;;1.98;100.00;100400.42;1742446;81;20995;-73
2021/12/14 00:24:25;;;;;;;21.40;13.38;;;;;;;2.00;100.00;100400.26;1746391;81;20955;-73
2021/12/14 00:26:59;;;;;;;16.40;13.00;;;;;;;1.96;100.00;100397.14;1753809;81;20998;-75
2021/12/14 00:29:30;;;;;;;20.68;13.00;;;;;;;1.93;100.00;100405.93;1749091;81;21009;-74
2021/12/14 00:32:00;;;;;;;24.00;16.77;;;;;;;1.92;100.00;100405.63;1755768;81;21127;-76
2021/12/14 00:34:39;;;;;;;26.33;15.58;;;;;;;1.90;100.00;100405.80;1755490;81;21019;-75
2021/12/14 00:37:09;;;;;;;17.62;13.13;;;;;;;1.96;100.00;100393.66;1705154;82;20936;-78
2021/12/14 00:39:38;;;;;;;22.02;14.07;;;;;;;2.01;100.00;100397.94;1745704;81;20999;-77
2021/12/14 00:42:05;;;;;;;23.42;15.28;;;;;;;2.01;100.00;100399.27;1747664;81;21071;-77
2021/12/14 00:44:33;;;;;;;22.52;16.23;;;;;;;1.95;100.00;100392.83;1742957;81;21169;-71
2021/12/14 00:47:00;;;;;;;17.40;11.85;;;;;;;1.92;100.00;100396.34;1742502;81;21591;-69
2021/12/14 00:49:27;;;;;;;22.00;15.53;;;;;;;1.92;100.00;100386.53;1743608;81;21631;-69
2021/12/14 00:51:56;;;;;;;18.17;12.88;;;;;;;1.92;100.00;100391.05;1746389;81;22268;-67
2021/12/14 00:54:23;;;;;;;20.65;15.60;;;;;;;1.94;100.00;100393.00;1752057;81;21078;-68
2021/12/14 00:56:50;;;;;;;22.02;15.78;;;;;;;1.92;100.00;100387.86;1751569;81;21208;-71
2021/12/14 00:59:18;;;;;;;17.73;12.37;;;;;;;1.88;100.00;100400.33;1734741;81;21062;-73
2021/12/14 01:01:56;;;;;;;27.32;15.90;;;;;;;1.88;100.00;100398.50;1736284;81;21038;-74
2021/12/14 01:04:30;;;;;;;22.32;15.55;;;;;;;1.89;100.00;100401.48;1748963;81;21040;-75
2021/12/14 01:06:58;;;;;;;24.77;15.05;;;;;;;1.86;100.00;100395.22;1755203;81;21010;-72
2021/12/14 01:09:30;;;;;;;19.50;15.40;;;;;;;1.86;100.00;100394.39;1757126;81;20975;-76
2021/12/14 01:12:03;;;;;;;24.12;15.53;;;;;;;1.88;100.00;100401.16;1756356;81;20979;-73
2021/12/14 01:14:47;;;;;;;19.05;13.35;;;;;;;1.90;100.00;100402.31;1748972;81;21012;-75
2021/12/14 01:17:27;;;;;;;20.90;15.60;;;;;;;1.87;100.00;100400.83;1752422;81;21047;-75
2021/12/14 01:19:51;;;;;;;21.05;16.27;;;;;;;1.86;100.00;100401.02;1732972;81;21094;-75
2021/12/14 01:22:42;;;;;;;23.00;16.00;;;;;;;1.78;100.00;100405.03;1743193;81;21137;-74
2021/12/14 01:25:26;;;;;;;18.20;16.07;;;;;;;1.78;100.00;100407.69;1746616;81;20978;-75
2021/12/14 01:28:05;;;;;;;18.85;13.15;;;;;;;1.79;100.00;100405.36;1720123;81;20974;-75
2021/12/14 01:30:42;;;;;;;19.23;13.32;;;;;;;1.81;100.00;100402.05;1710761;82;21537;-73
2021/12/14 01:33:08;;;;;;;21.20;14.75;;;;;;;1.79;100.00;100398.73;1689094;84;21026;-77
2021/12/14 01:35:37;;;;;;;19.23;14.38;;;;;;;1.82;100.00;100405.86;1723085;82;21087;-75
2021/12/14 01:38:17;;;;;;;26.10;16.80;;;;;;;1.83;100.00;100407.98;1723181;83;21616;-75
2021/12/14 01:40:54;;;;;;;23.42;17.42;;;;;;;1.80;100.00;100402.55;1721914;83;20955;-75
2021/12/14 01:43:37;;;;;;;26.50;17.27;;;;;;;1.82;100.00;100411.16;1731704;81;21025;-76
2021/12/14 01:46:13;;;;;;;18.10;13.35;;;;;;;1.86;100.00;100411.13;1711406;82;21062;-76
2021/12/14 01:48:41;;;;;;;19.98;14.98;;;;;;;1.87;100.00;100409.31;1732589;82;21307;-76
2021/12/14 01:51:24;;;;;;;17.98;14.33;;;;;;;1.87;100.00;100407.98;1734505;82;20999;-76
2021/12/14 01:53:55;;;;;;;17.55;14.35;;;;;;;1.84;100.00;100414.45;1732694;82;20972;-75
2021/12/14 01:56:25;;;;;;;17.23;13.90;;;;;;;1.81;100.00;100413.98;1734167;82;21075;-76
2021/12/14 01:58:57;;;;;;;17.73;13.70;;;;;;;1.79;100.00;100412.82;1736638;82;21065;-76
2021/12/14 02:01:35;;;;;;;19.05;13.43;;;;;;;1.82;100.00;100416.97;1707849;82;21543;-75
2021/12/14 02:04:01;;;;;;;18.57;15.23;;;;;;;1.80;100.00;100413.16;1736106;82;21564;-76
2021/12/14 02:06:31;;;;;;;17.65;14.25;;;;;;;1.69;100.00;100406.42;1736543;82;21055;-75
2021/12/14 02:09:09;;;;;;;16.02;11.95;;;;;;;1.65;100.00;100409.59;1736787;82;20948;-75
2021/12/14 02:11:43;;;;;;;18.30;14.40;;;;;;;1.67;100.00;100400.98;1708337;82;21027;-78
2021/12/14 02:14:10;;;;;;;17.98;12.45;;;;;;;1.69;100.00;100403.77;1708281;82;21071;-78
2021/12/14 02:16:39;;;;;;;22.85;14.90;;;;;;;1.66;100.00;100404.62;1708937;82;21023;-75
2021/12/14 02:19:13;;;;;;;18.25;11.12;;;;;;;1.63;100.00;100402.34;1736876;82;21058;-75
2021/12/14 02:21:42;;;;;;;16.48;13.65;;;;;;;1.65;100.00;100402.47;1737813;82;21000;-76
2021/12/14 02:24:09;;;;;;;16.32;13.50;;;;;;;1.66;100.00;100400.16;1707826;82;21039;-75
2021/12/14 02:26:38;;;;;;;15.90;13.40;;;;;;;1.66;100.00;100402.80;1736309;82;21085;-76
2021/12/14 02:29:08;;;;;;;19.10;13.50;;;;;;;1.65;100.00;100398.98;1713712;81;21026;-76
2021/12/14 02:31:38;;;;;;;16.20;11.93;;;;;;;1.64;100.00;100396.84;1701802;81;21584;-76
2021/12/14 02:34:05;;;;;;;18.05;13.38;;;;;;;1.62;100.00;100397.53;1748666;81;22201;-76
2021/12/14 02:36:36;;;;;;;13.80;10.72;;;;;;;1.57;100.00;100397.72;1733834;82;21031;-74
2021/12/14 02:39:09;;;;;;;14.55;12.10;;;;;;;1.54;100.00;100394.91;1707030;82;21098;-76
2021/12/14 02:41:46;;;;;;;15.80;11.85;;;;;;;1.52;100.00;100397.42;1735478;82;20987;-74
2021/12/14 02:44:13;;;;;;;15.68;11.00;;;;;;;1.54;100.00;100399.37;1731666;82;21091;-74
2021/12/14 02:46:45;;;;;;;15.13;11.57;;;;;;;1.52;100.00;100400.06;1712306;82;20959;-74
2021/12/14 02:49:14;;;;;;;15.28;11.78;;;;;;;1.42;100.00;100400.28;1732348;82;21055;-78
2021/12/14 02:51:47;;;;;;;22.07;15.50;;;;;;;1.38;100.00;100398.16;1707471;82;21017;-75
2021/12/14 02:54:19;;;;;;;14.90;12.55;;;;;;;1.41;100.00;100400.45;1683916;82;21052;-74
2021/12/14 02:56:51;;;;;;;14.30;11.12;;;;;;;1.46;100.00;100401.58;1709707;83;21059;-76
2021/12/14 02:59:22;;;;;;;16.20;11.63;;;;;;;1.52;100.00;100402.22;1723078;82;21653;-75
2021/12/14 03:01:50;;;;;;;12.93;10.85;;;;;;;1.53;100.00;100400.40;1725966;83;21005;-76
2021/12/14 03:04:17;;;;;;;15.30;12.50;;;;;;;1.56;100.00;100405.34;1737050;82;21898;-75
2021/12/14 03:06:52;;;;;;;15.58;13.95;;;;;;;1.56;100.00;100407.50;1733022;82;20972;-76
2021/12/14 03:09:36;;;;;;;14.87;10.45;;;;;;;1.52;100.00;100403.55;1722339;82;20972;-75
2021/12/14 03:12:02;;;;;;;14.85;11.65;;;;;;;1.52;100.00;100406.20;1733692;82;21015;-76
2021/12/14 03:14:29;;;;;;;15.28;12.13;;;;;;;1.53;100.00;100404.38;1718383;82;21062;-76
2021/12/14 03:16:55;;;;;;;14.53;10.88;;;;;;;1.50;100.00;100411.33;1732539;82;22197;-74
2021/12/14 03:19:22;;;;;;;16.75;12.90;;;;;;;1.46;100.00;100414.83;1734215;82;21572;-75
2021/12/14 03:21:49;;;;;;;16.95;12.53;;;;;;;1.42;100.00;100408.23;1734836;82;21008;-75
2021/12/14 03:24:17;;;;;;;14.25;12.65;;;;;;;1.39;100.00;100415.71;1734461;82;20940;-73
2021/12/14 03:26:51;;;;;;;12.37;10.18;;;;;;;1.39;100.00;100409.09;1685571;82;21001;-75
2021/12/14 03:29:26;;;;;;;17.75;12.47;;;;;;;1.40;100.00;100411.55;1704811;83;21244;-74
2021/12/14 03:31:56;;;;;;;16.32;12.43;;;;;;;1.42;100.00;100410.05;1738106;82;21009;-74
2021/12/14 03:34:29;;;;;;;15.03;10.65;;;;;;;1.42;100.00;100402.10;1720387;82;21039;-74
2021/12/14 03:37:01;;;;;;;16.23;12.10;;;;;;;1.38;100.00;100404.78;1704064;83;20956;-74
2021/12/14 03:39:53;;;;;;;14.47;10.75;;;;;;;1.37;100.00;100407.09;1727102;82;21055;-77
2021/12/14 03:42:36;;;;;;;13.05;11.28;;;;;;;1.40;100.00;100403.59;1738328;81;21061;-76
2021/12/14 03:44:58;;;;;;;15.32;13.08;;;;;;;1.46;100.00;100407.38;1738430;81;21065;-77
2021/12/14 03:47:30;;;;;;;13.55;10.30;;;;;;;1.49;100.00;100407.85;1729720;81;21551;-77
2021/12/14 03:50:14;;;;;;;15.32;12.50;;;;;;;1.55;100.00;100405.01;1760570;81;21148;-76
2021/12/14 03:52:42;;;;;;;14.23;11.18;;;;;;;1.58;100.00;100406.80;1755967;81;21490;-76
2021/12/14 03:55:27;;;;;;;15.15;10.68;;;;;;;1.61;100.00;100409.63;1720078;82;21091;-76
2021/12/14 03:57:54;;;;;;;15.30;11.15;;;;;;;1.59;100.00;100416.41;1734654;81;20987;-76
2021/12/14 04:00:43;;;;;;;15.93;12.45;;;;;;;1.52;100.00;100416.80;1738916;81;21002;-75
2021/12/14 04:03:14;;;;;;;15.75;11.63;;;;;;;1.51;100.00;100415.64;1761977;81;21026;-74
2021/12/14 04:06:00;;;;;;;14.95;11.70;;;;;;;1.52;100.00;100419.95;1758985;81;21545;-75
2021/12/14 04:08:28;;;;;;;18.37;12.68;;;;;;;1.46;100.00;100419.30;1729457;81;21970;-74
2021/12/14 04:10:56;;;;;;;18.50;13.50;;;;;;;1.49;100.00;100418.95;1729278;83;20969;-75
2021/12/14 04:13:30;;;;;;;17.37;12.88;;;;;;;1.47;100.00;100419.64;1730482;81;22292;-75
2021/12/14 04:15:57;;;;;;;19.75;13.65;;;;;;;1.46;100.00;100429.91;1745813;81;20952;-74
2021/12/14 04:18:27;;;;;;;21.68;12.93;;;;;;;1.51;100.00;100429.72;1762934;81;21102;-77
2021/12/14 04:20:55;;;;;;;24.98;15.18;;;;;;;1.50;100.00;100432.04;1762825;81;22012;-75
2021/12/14 04:23:26;;;;;;;18.80;13.45;;;;;;;1.52;100.00;100431.88;1761292;81;21008;-74
2021/12/14 04:25:57;;;;;;;18.23;12.88;;;;;;;1.50;100.00;100436.02;1759525;81;20932;-75
2021/12/14 04:28:28;;;;;;;20.97;13.98;;;;;;;1.48;100.00;100432.73;1729500;83;21100;-73
2021/12/14 04:30:55;;;;;;;18.12;13.32;;;;;;;1.40;100.00;100436.72;1739224;81;21007;-74
2021/12/14 04:33:29;;;;;;;20.32;13.30;;;;;;;1.35;100.00;100440.87;1760058;81;21072;-74
2021/12/14 04:35:56;;;;;;;16.85;11.83;;;;;;;1.38;100.00;100444.03;1736982;81;20955;-74
2021/12/14 04:38:29;;;;;;;17.27;12.15;;;;;;;1.45;100.00;100443.66;1729582;83;21054;-72
2021/12/14 04:52:11;;;;;;;22.02;16.07;;;;;;;1.42;100.00;100447.98;1698891;83;20988;-73
2021/12/14 04:54:49;;;;;;;19.17;13.90;;;;;;;1.50;100.00;100447.11;1725507;81;21528;-74
2021/12/14 04:57:37;;;;;;;19.20;13.32;;;;;;;1.53;100.00;100449.44;1741517;81;21536;-76
2021/12/14 05:00:32;;;;;;;19.48;14.13;;;;;;;1.51;100.00;100450.92;1724505;82;22021;-77
2021/12/14 05:03:18;;;;;;;17.17;12.70;;;;;;;1.51;100.00;100452.75;1724328;82;20995;-76
2021/12/14 05:05:50;;;;;;;16.67;13.60;;;;;;;1.49;100.00;100448.11;1727467;81;20995;-76
2021/12/14 05:10:58;;;;;;;19.55;15.23;;;;;;;1.49;100.00;100459.54;1728998;83;21090;-76
2021/12/14 05:13:27;;;;;;;16.73;12.90;;;;;;;1.46;100.00;100459.89;1729731;81;21555;-77
2021/12/14 05:15:54;;;;;;;16.40;11.65;;;;;;;1.49;100.00;100464.01;1701008;83;21555;-77
2021/12/14 05:18:20;;;;;;;16.75;12.55;;;;;;;1.53;100.00;100467.50;1759055;81;20979;-75
2021/12/14 05:20:47;;;;;;;18.52;11.50;;;;;;;1.50;100.00;100469.64;1704141;81;21658;-76
2021/12/14 05:23:25;;;;;;;17.23;12.00;;;;;;;1.45;100.00;100471.48;1756120;81;21047;-74
2021/12/14 05:25:52;;;;;;;15.35;11.08;;;;;;;1.47;100.00;100471.33;1702771;82;21544;-76
2021/12/14 05:28:20;;;;;;;18.07;11.83;;;;;;;1.46;100.00;100472.31;1752947;81;21572;-76
2021/12/14 05:30:50;;;;;;;17.37;13.45;;;;;;;1.43;100.00;100476.16;1705070;83;21264;-76
2021/12/14 05:33:27;;;;;;;15.40;12.10;;;;;;;1.46;100.00;100477.12;1704035;81;21006;-77
2021/12/14 05:35:56;;;;;;;19.87;12.85;;;;;;;1.52;100.00;100476.94;1706385;81;21043;-78
2021/12/14 05:38:39;;;;;;;17.20;12.20;;;;;;;1.57;100.00;100478.08;1760195;81;21054;-76
2021/12/14 05:41:08;;;;;;;20.77;12.63;;;;;;;1.61;100.00;100483.86;1751785;81;21548;-77
2021/12/14 05:43:29;;;;;;;15.70;10.88;;;;;;;1.57;100.00;100474.59;1734309;82;21034;-78
2021/12/14 05:46:01;;;;;;;17.05;14.58;;;;;;;1.59;100.00;100484.02;1705058;82;21051;-76
2021/12/14 05:48:32;;;;;;;;;;;;;;;1.59;100.00;100481.86;1737505;81;21065;-77
2021/12/14 05:51:05;;;;;;;20.90;15.00;;;;;;;1.57;100.00;100475.92;1721376;83;21117;-78
2021/12/14 05:53:34;;;;;;;;;;;;;;;1.59;100.00;100483.19;1736009;82;20979;-77
2021/12/14 05:56:04;;;;;;;21.10;14.20;;;;;;;1.60;100.00;100484.84;1705583;82;20643;-77
2021/12/14 05:58:32;;;;;;;17.27;12.93;;;;;;;1.53;100.00;100482.58;1702351;82;21050;-77
2021/12/14 06:01:03;;;;;;;16.27;12.47;;;;;;;1.55;100.00;100484.53;1707991;82;20979;-82
2021/12/14 06:03:38;;;;;;;14.68;12.28;;;;;;;1.52;100.00;100481.74;1706853;82;21090;-81
2021/12/14 06:06:18;;;;;;;12.53;9.73;;;;;;;1.50;100.00;100485.55;1733725;82;21050;-80
2021/12/14 06:08:45;;;;;;;13.18;10.20;;;;;;;1.55;100.00;100491.16;1699477;84;21562;-82
2021/12/14 06:11:22;;;;;;;17.50;12.73;;;;;;;1.54;100.00;100486.36;1733235;81;21076;-80
2021/12/14 06:13:48;;;;;;;17.02;13.08;;;;;;;1.56;100.00;100485.70;1667619;84;21105;-76
2021/12/14 06:16:29;;;;;;;20.17;13.70;;;;;;;1.55;100.00;100481.88;1680371;84;21044;-78
2021/12/14 06:19:15;;;;;;;22.40;13.72;;;;;;;1.53;100.00;100482.58;1708328;84;20983;-77
2021/12/14 06:21:44;;;;;;;17.45;11.97;;;;;;;1.53;100.00;100483.41;1713277;82;20951;-78
2021/12/14 06:24:11;;;;;;;18.48;13.98;;;;;;;1.52;100.00;100495.49;1736976;82;21686;-78
2021/12/14 06:26:46;;;;;;;30.35;20.17;;;;;;;1.47;100.00;100493.36;1734362;81;21524;-79
2021/12/14 06:29:17;;;;;;;19.67;14.00;;;;;;;1.41;100.00;100493.20;1737098;82;21825;-79
2021/12/14 06:31:44;;;;;;;16.65;13.28;;;;;;;1.39;100.00;100489.91;1717781;82;21102;-78
2021/12/14 06:34:24;;;;;;;20.05;14.68;;;;;;;1.42;100.00;100494.86;1742544;81;20924;-75
2021/12/14 06:40:19;;;;;;;23.02;15.70;;;;;;;1.36;100.00;100505.64;1684111;82;20999;-78
2021/12/14 06:42:51;;;;;;;19.75;14.18;;;;;;;1.36;100.00;100502.99;1687276;83;21070;-75
2021/12/14 06:45:28;;;;;;;21.02;13.70;;;;;;;1.43;100.00;100501.83;1715581;83;21006;-75
2021/12/14 06:48:00;;;;;;;19.35;13.43;;;;;;;1.44;100.00;100515.41;1712915;83;21015;-73
2021/12/14 06:50:38;;;;;;;18.50;13.65;;;;;;;1.40;100.00;100505.63;1683389;84;20991;-74
2021/12/14 06:53:11;;;;;;;22.32;14.30;;;;;;;1.36;100.00;100504.32;1682886;85;21036;-74
2021/12/14 06:55:59;;;;;;;19.30;13.55;;;;;;;1.34;100.00;100499.70;1697893;84;21572;-74
2021/12/14 06:59:01;;;;;;;18.87;13.80;;;;;;;1.34;100.00;100496.22;1696297;84;20912;-74
2021/12/14 07:01:52;;;;;;;19.00;13.45;;;;;;;1.39;100.00;100496.02;1710730;83;21022;-74
2021/12/14 07:04:23;;;;;;;17.23;13.68;;;;;;;1.34;100.00;100495.73;1711156;83;20955;-76
2021/12/14 07:06:59;;;;;;;17.27;12.85;;;;;;;1.26;100.00;100499.70;1711213;83;21080;-75
2021/12/14 07:09:33;;;;;;;19.95;14.58;;;;;;;1.27;100.00;100504.02;1714559;83;21063;-73
2021/12/14 07:12:07;;;;;;;16.20;13.03;;;;;;;1.29;100.00;100504.19;1720291;83;20944;-78
2021/12/14 07:15:02;;;;;;;15.83;13.50;;;;;;;1.30;100.00;100503.17;1706661;82;21031;-79
2021/12/14 07:17:41;;;;;;;;;;;;;;;1.27;100.00;100507.99;1694854;84;21086;-80
2021/12/14 07:20:28;;;;;;;18.50;14.95;;;;;;;1.26;100.00;100510.30;1681117;85;20484;-78
2021/12/14 07:23:26;;;;;;;21.00;15.88;;;;;;;1.24;100.00;100509.17;1693751;82;21591;-76
2021/12/14 07:26:05;;;;;;;26.62;21.55;;;;;;;1.20;100.00;100505.18;1686804;82;21012;-77
2021/12/14 07:28:44;;;;;;;29.37;20.90;;;;;;;1.18;100.00;100505.87;1700233;82;22225;-78
2021/12/14 07:31:20;;;;;;;15.38;12.65;;;;;;;1.22;100.00;100507.17;1693760;83;21761;-78
2021/12/14 07:33:50;;;;;;;16.77;13.58;;;;;;;1.24;100.00;100507.02;1710772;83;21589;-79
2021/12/14 07:36:27;;;;;;;16.40;13.53;;;;;;;1.27;100.00;100511.97;1710951;83;22197;-77
2021/12/14 07:38:59;;;;;;;15.60;12.80;;;;;;;1.30;100.00;100509.80;1681936;83;21066;-76
2021/12/14 07:41:41;;;;;;;16.32;11.65;;;;;;;1.29;100.00;100511.31;1707861;82;21133;-77
2021/12/14 07:44:16;;;;;;;16.62;10.93;;;;;;;1.20;100.00;100506.50;1701089;82;21090;-74
2021/12/14 07:47:11;;;;;;;12.33;9.30;;;;;;;1.18;100.00;100516.95;1714463;82;21623;-78
2021/12/14 07:49:54;;;;;;;13.28;10.60;;;;;;;1.24;100.00;100512.31;1710293;81;21010;-76
2021/12/14 07:52:19;;;;;;;16.27;10.05;;;;;;;1.30;100.00;100514.27;1764123;81;21101;-75
2021/12/14 07:55:01;;;;;;;16.10;13.32;;;;;;;1.33;100.00;100514.44;1736582;81;21545;-77
2021/12/14 07:57:34;;;;;;;16.60;12.68;;;;;;;1.33;100.00;100516.59;1748898;81;28172;-75
2021/12/14 08:00:21;;;;;;;16.12;12.45;;;;;;;1.32;100.00;100521.56;1738755;82;21015;-77
2021/12/14 08:02:52;;;;;;;16.55;13.60;;;;;;;1.30;100.00;100520.39;1703141;82;21088;-76
2021/12/14 08:05:35;;;;;;;15.03;11.57;;;;;;;1.33;100.00;100517.09;1732412;81;21050;-78
2021/12/14 08:08:19;;;;;;;20.02;12.88;;;;;;;1.36;100.00;100509.62;1732890;82;21071;-77
2021/12/14 08:10:58;;;;;;;16.15;12.53;;;;;;;1.39;100.00;100507.14;1736974;82;20999;-75
2021/12/14 08:13:22;;;;;;;15.65;12.58;;;;;;;1.38;100.00;100509.45;1728271;81;21058;-75
2021/12/14 08:15:53;;;;;;;15.70;11.97;;;;;;;1.38;100.00;100511.61;1728476;82;21141;-77
2021/12/14 08:18:34;;;;;;;17.90;12.28;;;;;;;1.40;100.00;100508.77;1744055;81;21008;-75
2021/12/14 08:21:10;;;;;;;12.68;9.18;;;;;;;1.40;100.00;100506.95;1761749;81;21545;-76
2021/12/14 08:23:44;;;;;;;12.07;9.95;;;;;;;1.40;100.00;100506.95;1764345;81;21017;-77
2021/12/14 08:26:27;;;;;;;14.13;11.25;;;;;;;1.40;100.00;100503.47;1760071;81;21090;-74
2021/12/14 08:29:03;;;;;;;12.05;10.48;;;;;;;1.38;100.00;100501.02;1736369;82;21140;-72
2021/12/14 08:31:40;;;;;;;12.73;10.60;;;;;;;1.40;100.00;100504.30;1736848;82;21568;-74
2021/12/14 08:34:15;;;;;;;12.70;11.22;;;;;;;1.44;100.00;100495.01;1736618;81;21137;-72
2021/12/14 08:36:52;;;;;;;12.80;11.20;;;;;;;1.46;100.00;100502.30;1706150;82;21533;-73
2021/12/14 08:39:23;;;;;;;15.50;10.70;;;;;;;1.38;100.00;100508.97;1733972;82;20967;-79
2021/12/14 08:41:56;;;;;;;11.65;9.78;;;;;;;1.35;100.00;100509.78;1714591;82;21150;-74
2021/12/14 08:44:38;;;;;;;20.37;12.75;;;;;;;1.37;100.00;100513.09;1752922;81;20944;-74
2021/12/14 08:47:08;;;;;;;16.30;11.57;;;;;;;1.40;100.00;100514.07;1723364;82;21915;-73
2021/12/14 08:49:35;;;;;;;14.78;11.95;;;;;;;1.39;100.00;100511.91;1743216;81;21551;-77
2021/12/14 08:52:01;;;;;;;14.53;12.60;;;;;;;1.42;100.00;100513.42;1741254;81;21057;-77
2021/12/14 08:54:29;;;;;;;10.68;9.53;;;;;;;1.44;100.00;100511.44;1730965;81;21284;-77
2021/12/14 08:57:10;;;;;;;15.63;12.25;;;;;;;1.37;100.00;100510.45;1764242;81;21034;-77
2021/12/14 08:59:43;;;;;;;13.05;11.22;;;;;;;1.39;100.00;100507.14;1739181;82;21055;-83
2021/12/14 09:02:13;;;;;;;14.87;11.97;;;;;;;1.44;100.00;100509.58;1739925;82;27033;-78
2021/12/14 09:05:00;;;;;;;17.30;11.53;;;;;;;1.40;100.00;100506.95;1739789;81;21026;-75
2021/12/14 09:07:30;;;;;;;13.90;12.28;;;;;;;1.43;100.00;100506.62;1719956;83;21091;-79
2021/12/14 09:09:59;;;;;;;16.90;14.18;;;;;;;1.49;100.00;100495.81;1750786;81;20969;-75
2021/12/14 09:12:35;;;;;;;15.58;12.35;;;;;;;1.44;100.00;100497.66;1666691;84;21067;-75
2021/12/14 09:15:20;;;;;;;14.98;11.65;;;;;;;1.46;100.00;100510.75;1745525;81;21086;-75
2021/12/14 09:17:48;;;;;;;11.95;9.98;;;;;;;1.50;100.00;100502.77;1745457;81;20994;-76
2021/12/14 09:20:20;;;;;;;12.73;10.72;;;;;;;1.51;100.00;100507.91;1732051;81;21529;-76
2021/12/14 09:22:51;;;;;;;17.75;14.28;;;;;;;1.55;100.00;100497.79;1725088;83;21722;-76
2021/12/14 09:25:21;;;;;;;15.40;13.03;;;;;;;1.57;100.00;100504.59;1730471;81;21074;-80
2021/12/14 09:27:47;;;;;;;16.57;12.93;;;;;;;1.60;100.00;100495.45;1733529;81;21591;-77
2021/12/14 09:30:16;;;;;;;16.40;14.25;;;;;;;1.60;100.00;100502.91;1755579;81;21098;-77
2021/12/14 09:32:43;;;;;;;23.07;15.10;;;;;;;1.60;100.00;100504.23;1732150;81;21108;-78
2021/12/14 09:35:16;;;;;;;14.15;11.93;;;;;;;1.66;100.00;100505.37;1758857;81;21489;-77
2021/12/14 09:37:42;;;;;;;14.60;11.38;;;;;;;1.71;100.00;100506.52;1762652;80;21116;-77
2021/12/14 09:40:13;;;;;;;14.15;11.40;;;;;;;1.73;100.00;100499.20;1769526;80;21103;-81
2021/12/14 09:42:40;;;;;;;15.05;12.45;;;;;;;1.73;100.00;100497.05;1688881;83;21078;-81
2021/12/14 09:45:14;;;;;;;15.70;13.20;;;;;;;1.74;100.00;100496.88;1704362;83;21625;-82
2021/12/14 09:47:41;;;;;;;14.33;12.70;;;;;;;1.72;100.00;100488.78;1653572;85;20999;-81
2021/12/14 09:50:13;;;;;;;22.00;15.32;;;;;;;1.76;100.00;100487.44;1720174;82;21026;-81
2021/12/14 09:52:44;;;;;;;19.37;13.25;;;;;;;1.73;100.00;100481.96;1705577;84;21049;-82
2021/12/14 09:55:18;;;;;;;15.60;11.27;;;;;;;1.67;100.00;100485.83;1714906;83;21092;-79
2021/12/14 09:57:50;;;;;;;19.95;14.13;;;;;;;1.67;100.00;100489.30;1705666;83;21162;-79
2021/12/14 10:00:30;;;;;;;19.57;14.15;;;;;;;1.60;100.00;100486.17;1722020;81;20956;-78
2021/12/14 10:02:58;;;;;;;20.30;15.65;;;;;;;1.59;100.00;100485.34;1722734;82;20999;-79
2021/12/14 10:05:39;;;;;;;16.67;11.95;;;;;;;1.59;100.00;100479.21;1737081;82;21043;-81
2021/12/14 10:08:17;;;;;;;15.95;12.78;;;;;;;1.59;100.00;100481.86;1714960;82;26430;-79
2021/12/14 10:11:01;;;;;;;22.10;14.47;;;;;;;1.59;100.00;100480.53;1741096;82;21119;-78
2021/12/14 10:13:30;;;;;;;16.35;12.37;;;;;;;1.54;100.00;100473.59;1726336;81;21007;-81
2021/12/14 10:15:57;;;;;;;18.23;12.50;;;;;;;1.55;100.00;100475.26;1734729;82;21022;-78
2021/12/14 10:18:35;;;;;;;17.30;12.88;;;;;;;1.56;100.00;100471.61;1705225;82;21100;-81
2021/12/14 10:21:20;;;;;;;18.42;13.10;;;;;;;1.61;100.00;100470.10;1696984;82;21055;-79
2021/12/14 10:23:49;;;;;;;23.27;14.68;;;;;;;1.68;100.00;100476.34;1729014;81;21095;-80
2021/12/14 10:26:15;;;;;;;19.67;15.03;;;;;;;1.69;100.00;100466.08;1710803;82;21082;-80
2021/12/14 10:28:49;;;;;;;19.67;15.08;;;;;;;1.65;100.00;100466.59;1681699;83;21097;-79
2021/12/14 10:31:31;;;;;;;16.95;12.95;;;;;;;1.66;100.00;100464.28;1681328;84;21555;-79
2021/12/14 10:34:08;;;;;;;22.15;15.95;;;;;;;1.66;100.00;100457.66;1709785;82;22183;-82
2021/12/14 10:36:42;;;;;;;20.17;13.20;;;;;;;1.68;100.00;100463.09;1697922;81;21209;-80
2021/12/14 10:44:32;;;;;;;18.52;14.15;;;;;;;1.63;100.00;100462.78;1699764;81;21540;-81
2021/12/14 10:46:58;;;;;;;22.37;14.85;;;;;;;1.63;100.00;100457.48;1682348;82;21032;-77
2021/12/14 10:49:25;;;;;;;16.62;12.58;;;;;;;1.64;100.00;100459.63;1709271;81;21525;-80
2021/12/14 10:51:57;;;;;;;20.37;13.53;;;;;;;1.61;100.00;100462.15;1732442;81;21066;-81
2021/12/14 10:54:24;;;;;;;25.92;18.48;;;;;;;1.64;100.00;100465.77;1724792;81;21536;-77
2021/12/14 10:57:13;;;;;;;21.37;14.47;;;;;;;1.73;100.00;100465.22;1725224;82;21743;-76
2021/12/14 10:59:44;;;;;;;22.42;15.48;;;;;;;1.73;100.00;100463.40;1704589;82;20996;-79
2021/12/14 11:02:23;;;;;;;25.02;17.25;;;;;;;1.77;100.00;100461.25;1742648;81;21132;-78
2021/12/14 11:04:58;;;;;;;22.93;16.27;;;;;;;1.84;100.00;100464.84;1708940;82;21056;-81
2021/12/14 11:07:39;;;;;;;18.37;13.45;;;;;;;1.91;100.00;100462.33;1737611;81;21010;-76
2021/12/14 11:10:24;;;;;;;15.53;13.88;;;;;;;1.85;100.00;100461.69;1735708;82;20991;-77
2021/12/14 11:13:10;;;;;;;19.98;13.62;;;;;;;1.83;100.00;100467.16;1761389;81;21023;-83
2021/12/14 11:15:49;;;;;;;19.57;14.25;;;;;;;1.78;100.00;100459.39;1764153;81;21165;-84
2021/12/14 11:18:25;;;;;;;15.87;12.63;;;;;;;1.78;100.00;100467.35;1730082;81;21604;-81
2021/12/14 11:21:06;;;;;;;18.00;12.15;;;;;;;1.75;100.00;100460.09;1691448;84;20970;-81
2021/12/14 11:23:40;;;;;;;17.85;12.43;;;;;;;1.76;100.00;100466.22;1721051;81;21017;-81
2021/12/14 11:26:14;;;;;;;15.65;12.47;;;;;;;1.75;100.00;100468.05;1723815;81;21104;-76
2021/12/14 11:28:45;;;;;;;18.80;12.37;;;;;;;1.74;100.00;100461.58;1721724;81;21847;-80
2021/12/14 11:31:25;;;;;;;19.75;14.68;;;;;;;1.76;100.00;100459.59;1747021;81;21780;-79
2021/12/14 11:34:01;;;;;;;21.15;13.95;;;;;;;1.79;100.00;100460.56;1739675;82;20955;-82
2021/12/14 11:36:45;;;;;;;16.77;13.68;;;;;;;1.77;100.00;100457.27;1735953;81;21059;-81
2021/12/14 11:39:28;;;;;;;14.05;11.85;;;;;;;1.76;100.00;100458.27;1733177;82;45230;-81
2021/12/14 11:42:08;;;;;;;16.57;12.82;;;;;;;1.78;100.00;100462.05;1728997;83;21170;-79
2021/12/14 11:44:45;;;;;;;15.25;11.22;;;;;;;1.85;100.00;100457.22;1713748;81;21333;-76
2021/12/14 11:50:05;;;;;;;21.73;14.13;;;;;;;1.85;100.00;100460.36;1750042;81;21643;-81
2021/12/14 11:52:42;;;;;;;23.32;15.08;;;;;;;1.88;100.00;100459.50;1721042;81;21075;-81
2021/12/14 11:55:45;;;;;;;20.32;14.60;;;;;;;1.85;100.00;100471.80;1757233;81;21145;-81
2021/12/14 11:58:23;;;;;;;22.00;15.32;;;;;;;1.85;100.00;100467.82;1754071;81;21494;-72
2021/12/14 12:01:10;;;;;;;17.23;12.43;;;;;;;1.85;100.00;100463.02;1731336;81;21631;-75
2021/12/14 12:03:53;;;;;;;19.02;14.28;;;;;;;1.82;100.00;100467.36;1731474;81;21011;-76
2021/12/14 12:09:51;;;;;;;25.62;14.95;;;;;;;1.67;100.00;100465.44;1759430;80;20976;-82
2021/12/14 12:12:33;;;;;;;17.12;11.38;;;;;;;1.61;100.00;100472.75;1738158;81;21042;-79